Time;durP1;ratioP1;P1;durP2;ratioP2;P2;SDS_P1;SDS_P2;PMS_P1;PMS_P2;Temp;Humidity;BMP_temperature;BMP_pressure;BME280_temperature;BME280_humidity;BME280_pressure;Samples;Min_cycle;Max_cycle;Signal;HPM_P1;HPM_P2
2022/09/26 00:01:15;;;;;;;4.47;3.00;;;11.90;99.90;;;;;;5133179;27;20075;-67
2022/09/26 00:03:45;;;;;;;4.35;2.97;;;11.90;99.90;;;;;;5133050;27;20403;-66
2022/09/26 00:06:12;;;;;;;4.88;3.40;;;11.90;99.90;;;;;;5133153;27;20441;-66
2022/09/26 00:08:38;;;;;;;4.88;2.88;;;11.90;99.90;;;;;;5133099;27;20039;-66
2022/09/26 00:11:07;;;;;;;7.80;2.85;;;11.90;99.90;;;;;;5133047;27;20089;-66
2022/09/26 00:13:36;;;;;;;3.55;2.83;;;11.90;99.90;;;;;;5131786;27;20043;-66
2022/09/26 00:16:03;;;;;;;4.68;2.53;;;11.90;99.90;;;;;;5132705;27;20039;-66
2022/09/26 00:18:28;;;;;;;6.75;3.63;;;11.80;99.90;;;;;;5132905;27;20054;-67
2022/09/26 00:21:02;;;;;;;6.93;2.58;;;11.90;99.90;;;;;;5132975;27;20042;-66
2022/09/26 00:23:27;;;;;;;5.82;2.90;;;11.90;99.90;;;;;;5133018;27;20087;-66
2022/09/26 00:25:57;;;;;;;4.95;3.05;;;11.90;99.90;;;;;;5132115;27;20074;-66
2022/09/26 00:28:23;;;;;;;6.70;3.10;;;11.90;99.90;;;;;;5132965;27;20035;-67
2022/09/26 00:30:48;;;;;;;9.13;2.53;;;11.80;99.90;;;;;;5132760;27;20035;-66
2022/09/26 00:33:14;;;;;;;6.28;2.72;;;11.90;99.90;;;;;;5132735;28;20041;-67
2022/09/26 00:35:39;;;;;;;5.80;3.28;;;11.90;99.90;;;;;;5132992;27;20038;-67
2022/09/26 00:38:05;;;;;;;3.17;2.67;;;11.90;99.90;;;;;;5132843;28;20403;-67
2022/09/26 00:40:31;;;;;;;6.15;2.88;;;11.90;99.90;;;;;;5132706;27;20036;-67
2022/09/26 00:42:57;;;;;;;4.45;2.97;;;11.90;99.90;;;;;;5131363;28;20042;-66
2022/09/26 00:45:28;;;;;;;7.03;2.90;;;11.90;99.90;;;;;;5132238;28;20031;-66
2022/09/26 00:48:04;;;;;;;6.95;3.67;;;11.90;99.90;;;;;;5132881;27;20041;-67
2022/09/26 00:50:35;;;;;;;8.80;2.70;;;11.90;99.90;;;;;;5132856;27;20035;-66
2022/09/26 00:53:05;;;;;;;4.32;2.60;;;11.90;99.90;;;;;;5132678;27;20043;-66
2022/09/26 00:55:35;;;;;;;6.03;2.95;;;11.90;99.90;;;;;;5137347;27;20042;-66
2022/09/26 00:58:11;;;;;;;8.07;2.67;;;11.80;99.90;;;;;;5153229;27;20045;-66
2022/09/26 01:00:40;;;;;;;2.80;2.40;;;11.80;99.90;;;;;;5153547;27;20042;-67
2022/09/26 01:03:06;;;;;;;3.75;2.92;;;11.80;99.90;;;;;;5153280;27;20103;-67
2022/09/26 01:05:33;;;;;;;6.65;2.90;;;11.80;99.90;;;;;;5152950;27;20655;-67
2022/09/26 01:08:00;;;;;;;6.93;2.92;;;11.80;99.90;;;;;;5153185;27;20166;-67
2022/09/26 01:10:28;;;;;;;9.48;2.83;;;11.80;99.90;;;;;;5153133;27;20034;-66
2022/09/26 01:12:56;;;;;;;8.35;2.95;;;11.80;99.90;;;;;;5152098;27;20050;-66
2022/09/26 01:15:22;;;;;;;4.13;2.55;;;11.80;99.90;;;;;;5151725;27;20039;-66
2022/09/26 01:17:48;;;;;;;5.75;3.00;;;11.80;99.90;;;;;;5153107;27;20049;-66
2022/09/26 01:20:45;;;;;;;3.35;2.85;;;11.80;99.90;;;;;;5153200;27;20035;-66
2022/09/26 01:23:20;;;;;;;7.32;2.65;;;11.80;99.90;;;;;;5152934;27;20091;-66
2022/09/26 01:26:22;;;;;;;5.32;2.58;;;11.80;99.90;;;;;;5152787;27;20039;-66
2022/09/26 01:28:55;;;;;;;5.60;2.70;;;11.80;99.90;;;;;;5153045;27;20402;-66
2022/09/26 01:31:33;;;;;;;10.10;2.65;;;11.80;99.90;;;;;;5153020;27;20030;-66
2022/09/26 01:34:07;;;;;;;11.02;3.15;;;11.80;99.90;;;;;;5152744;27;20042;-66
2022/09/26 01:37:00;;;;;;;5.30;2.83;;;11.80;99.90;;;;;;5153652;27;20062;-66
2022/09/26 01:39:40;;;;;;;8.02;2.83;;;11.80;99.90;;;;;;5156588;27;20091;-66
2022/09/26 01:42:16;;;;;;;9.38;2.85;;;11.70;99.90;;;;;;5156665;27;20085;-67
2022/09/26 01:45:01;;;;;;;9.52;2.80;;;11.70;99.90;;;;;;5156347;27;20106;-67
2022/09/26 01:47:40;;;;;;;6.53;2.70;;;11.70;99.90;;;;;;5156518;27;20075;-66
2022/09/26 01:50:48;;;;;;;8.65;2.90;;;11.80;99.90;;;;;;5156393;27;20042;-66
2022/09/26 01:53:33;;;;;;;7.70;3.08;;;11.70;99.90;;;;;;5072009;28;20040;-66
2022/09/26 01:56:08;;;;;;;6.80;3.10;;;11.80;99.90;;;;;;5071672;28;20521;-66
2022/09/26 01:58:42;;;;;;;7.95;2.88;;;11.80;99.90;;;;;;5071773;28;20041;-66
2022/09/26 02:01:12;;;;;;;6.38;3.03;;;11.70;99.90;;;;;;5071810;28;20053;-66
2022/09/26 02:03:57;;;;;;;5.13;2.80;;;11.70;99.90;;;;;;5071820;28;20040;-67
2022/09/26 02:06:47;;;;;;;7.45;3.25;;;11.80;99.90;;;;;;5071772;28;20115;-66
2022/09/26 02:09:18;;;;;;;3.80;2.80;;;11.80;99.90;;;;;;5071788;28;20045;-66
2022/09/26 02:11:49;;;;;;;8.93;3.25;;;11.80;99.90;;;;;;5071769;28;20132;-66
2022/09/26 02:14:20;;;;;;;6.50;3.38;;;11.80;99.90;;;;;;5054562;28;20057;-67
2022/09/26 02:16:51;;;;;;;4.75;3.03;;;11.70;99.90;;;;;;5071618;28;20179;-66
2022/09/26 02:19:39;;;;;;;6.25;3.30;;;11.80;99.90;;;;;;5071539;28;20040;-66
2022/09/26 02:22:05;;;;;;;7.18;3.60;;;11.80;99.90;;;;;;5071420;28;20045;-67
2022/09/26 02:24:30;;;;;;;5.68;3.45;;;11.80;99.90;;;;;;5071067;28;20178;-66
2022/09/26 02:26:56;;;;;;;10.65;3.35;;;11.80;99.90;;;;;;5103883;27;20050;-66
2022/09/26 02:29:22;;;;;;;8.40;3.03;;;11.80;99.90;;;;;;5155660;27;20030;-67
2022/09/26 02:31:54;;;;;;;4.88;3.17;;;11.80;99.90;;;;;;5155276;27;20137;-67
2022/09/26 02:34:20;;;;;;;6.07;3.38;;;11.80;99.90;;;;;;5155158;27;20623;-66
2022/09/26 02:36:46;;;;;;;8.63;3.17;;;11.80;99.90;;;;;;5155563;27;20076;-66
2022/09/26 02:39:12;;;;;;;7.13;3.60;;;11.80;99.90;;;;;;5154109;27;20098;-66
2022/09/26 02:42:01;;;;;;;7.32;3.40;;;11.80;99.90;;;;;;5155560;27;20575;-66
2022/09/26 02:44:40;;;;;;;6.20;3.47;;;11.80;99.90;;;;;;5154952;27;20121;-66
2022/09/26 02:47:25;;;;;;;7.13;3.85;;;11.80;99.90;;;;;;5155075;27;20071;-66
2022/09/26 02:49:59;;;;;;;7.47;3.25;;;11.80;99.90;;;;;;5155271;27;20073;-66
2022/09/26 02:52:49;;;;;;;8.27;3.72;;;11.80;99.90;;;;;;5155041;27;20039;-66
2022/09/26 02:55:23;;;;;;;4.30;3.67;;;11.90;99.90;;;;;;5154946;27;20095;-66
2022/09/26 02:58:00;;;;;;;6.60;3.63;;;11.80;99.90;;;;;;5154938;27;20038;-66
2022/09/26 03:00:52;;;;;;;8.02;4.30;;;11.80;99.90;;;;;;5153684;27;20043;-66
2022/09/26 03:03:51;;;;;;;9.00;4.15;;;11.80;99.90;;;;;;5139973;27;20051;-66
2022/09/26 03:06:20;;;;;;;7.90;3.70;;;11.80;99.90;;;;;;5154199;27;20038;-66
2022/09/26 03:08:47;;;;;;;8.77;3.63;;;11.80;99.90;;;;;;5154833;27;20101;-66
2022/09/26 03:11:20;;;;;;;6.03;4.55;;;11.70;99.90;;;;;;5154715;27;20113;-66
2022/09/26 03:13:46;;;;;;;10.32;4.55;;;11.80;99.90;;;;;;5154700;27;20446;-66
2022/09/26 03:16:13;;;;;;;12.95;4.30;;;11.80;99.90;;;;;;5154560;27;20041;-66
2022/09/26 03:18:46;;;;;;;7.43;4.82;;;11.80;99.90;;;;;;5154772;27;20042;-66
2022/09/26 03:21:13;;;;;;;8.32;4.60;;;11.80;99.90;;;;;;5154621;27;20035;-67
2022/09/26 03:23:39;;;;;;;6.72;4.30;;;11.80;99.90;;;;;;5153178;27;20054;-67
2022/09/26 03:26:11;;;;;;;6.72;4.60;;;11.80;99.90;;;;;;5154166;27;20035;-67
2022/09/26 03:28:36;;;;;;;8.45;4.55;;;11.80;99.90;;;;;;5153163;27;20035;-67
2022/09/26 03:31:02;;;;;;;7.22;5.15;;;11.80;99.90;;;;;;5154552;27;20034;-66
2022/09/26 03:33:28;;;;;;;11.82;4.90;;;11.80;99.90;;;;;;5154184;27;20479;-67
2022/09/26 03:35:53;;;;;;;5.90;4.80;;;11.80;99.90;;;;;;5153974;27;20039;-66
2022/09/26 03:38:19;;;;;;;5.88;4.85;;;11.70;99.90;;;;;;5154180;27;20039;-67
2022/09/26 03:40:45;;;;;;;7.43;4.85;;;11.80;99.90;;;;;;5154351;27;20057;-67
2022/09/26 03:43:11;;;;;;;7.38;4.70;;;11.80;99.90;;;;;;5154122;27;20482;-67
2022/09/26 03:45:36;;;;;;;6.75;5.15;;;11.70;99.90;;;;;;5152509;27;20046;-67
2022/09/26 03:48:03;;;;;;;9.27;4.97;;;11.70;99.90;;;;;;5154163;27;20041;-67
2022/09/26 03:50:28;;;;;;;9.18;5.18;;;11.60;99.90;;;;;;5154034;27;20082;-67
2022/09/26 03:52:54;;;;;;;9.98;5.38;;;11.70;99.90;;;;;;5153877;27;20074;-67
2022/09/26 03:55:19;;;;;;;9.55;5.20;;;11.70;99.90;;;;;;5153591;27;20043;-67
2022/09/26 03:57:45;;;;;;;11.63;5.47;;;11.70;99.90;;;;;;5154070;27;20031;-67
2022/09/26 04:00:11;;;;;;;6.90;4.90;;;11.70;99.90;;;;;;5152951;27;20082;-67
2022/09/26 04:02:36;;;;;;;9.50;4.55;;;11.70;99.90;;;;;;5153821;27;20083;-67
2022/09/26 04:05:03;;;;;;;10.27;4.90;;;11.70;99.90;;;;;;5152118;27;20038;-67
2022/09/26 04:07:28;;;;;;;7.03;4.72;;;11.60;99.90;;;;;;5153957;27;20368;-67
2022/09/26 04:09:54;;;;;;;12.48;5.13;;;11.60;99.90;;;;;;5153601;27;20094;-67
2022/09/26 04:12:20;;;;;;;9.40;5.90;;;11.60;99.90;;;;;;5153836;27;20049;-67
2022/09/26 04:14:45;;;;;;;5.70;5.03;;;11.50;99.90;;;;;;5153394;27;20035;-67
2022/09/26 04:17:11;;;;;;;14.63;5.55;;;11.50;99.90;;;;;;5153699;27;20042;-67
2022/09/26 04:19:37;;;;;;;8.25;5.63;;;11.50;99.90;;;;;;5153658;27;20038;-67
2022/09/26 04:22:03;;;;;;;12.85;5.60;;;11.60;99.90;;;;;;5153419;27;20042;-68
2022/09/26 04:24:29;;;;;;;9.73;6.45;;;11.60;99.90;;;;;;5153423;27;20035;-67
2022/09/26 04:26:55;;;;;;;11.52;6.40;;;11.60;99.90;;;;;;5153521;27;20049;-67
2022/09/26 04:29:21;;;;;;;9.73;5.93;;;11.60;99.90;;;;;;5152216;27;20050;-67
2022/09/26 04:31:46;;;;;;;12.35;7.07;;;11.60;99.90;;;;;;5153575;27;20042;-67
2022/09/26 04:34:13;;;;;;;10.07;7.03;;;11.70;99.90;;;;;;5153091;27;20073;-67
2022/09/26 04:36:39;;;;;;;9.73;6.85;;;11.50;99.90;;;;;;5153372;27;20086;-67
2022/09/26 04:39:05;;;;;;;11.13;7.65;;;11.60;99.90;;;;;;5153588;27;20122;-67
2022/09/26 04:41:30;;;;;;;10.80;7.43;;;11.60;99.90;;;;;;5153570;27;20107;-67
2022/09/26 04:43:58;;;;;;;10.55;7.00;;;11.60;99.90;;;;;;5151786;27;20405;-67
2022/09/26 04:46:26;;;;;;;15.98;7.88;;;11.60;99.90;;;;;;5153460;27;20030;-67
2022/09/26 04:48:54;;;;;;;12.27;7.78;;;11.60;99.90;;;;;;5152053;27;20061;-67
2022/09/26 04:51:21;;;;;;;13.57;7.38;;;11.50;99.90;;;;;;5153257;27;20143;-67
2022/09/26 04:53:47;;;;;;;10.00;7.72;;;11.50;99.90;;;;;;5153255;27;20043;-67
2022/09/26 04:56:14;;;;;;;11.50;8.02;;;11.50;99.90;;;;;;5153265;27;20402;-67
2022/09/26 04:58:40;;;;;;;15.02;8.27;;;11.50;99.90;;;;;;5153249;27;20133;-67
2022/09/26 05:01:18;;;;;;;12.25;7.65;;;11.50;99.90;;;;;;5153247;27;20035;-67
2022/09/26 05:03:44;;;;;;;12.35;8.23;;;11.50;99.90;;;;;;5152904;27;20045;-67
2022/09/26 05:06:10;;;;;;;13.13;7.95;;;11.50;99.90;;;;;;5153290;27;20031;-67
2022/09/26 05:08:38;;;;;;;17.27;8.70;;;11.50;99.90;;;;;;5153088;27;20070;-67
2022/09/26 05:11:04;;;;;;;15.32;8.90;;;11.50;99.90;;;;;;5154606;27;20502;-67
2022/09/26 05:13:30;;;;;;;13.40;8.00;;;11.50;99.90;;;;;;5157145;27;20038;-67
2022/09/26 05:15:58;;;;;;;11.52;7.82;;;11.50;99.90;;;;;;5156663;27;20038;-67
2022/09/26 05:18:25;;;;;;;10.75;7.95;;;11.50;99.90;;;;;;5156872;27;20035;-67
2022/09/26 05:20:52;;;;;;;10.85;8.18;;;11.50;99.90;;;;;;5157127;27;20030;-67
2022/09/26 05:26:30;;;;;;;11.93;7.68;;;11.50;99.90;;;;;;5156536;27;20046;-67
2022/09/26 05:29:02;;;;;;;11.00;7.75;;;11.50;99.90;;;;;;5156678;27;20050;-67
2022/09/26 05:31:35;;;;;;;11.85;7.05;;;11.40;99.90;;;;;;5155377;27;20039;-67
2022/09/26 05:34:05;;;;;;;9.73;7.75;;;11.40;99.90;;;;;;5153292;27;20066;-67
2022/09/26 05:36:30;;;;;;;13.35;7.82;;;11.40;99.90;;;;;;5155059;27;20041;-67
2022/09/26 05:38:56;;;;;;;16.67;7.35;;;11.50;99.90;;;;;;5155463;27;20039;-67
2022/09/26 05:41:21;;;;;;;14.55;8.43;;;11.40;99.90;;;;;;5153941;27;20035;-67
2022/09/26 05:43:47;;;;;;;16.55;8.63;;;11.40;99.90;;;;;;5155783;27;20459;-67
2022/09/26 05:46:14;;;;;;;12.23;7.03;;;11.40;99.90;;;;;;5155337;27;20046;-67
2022/09/26 05:48:40;;;;;;;11.57;7.47;;;11.40;99.90;;;;;;5153922;27;20118;-67
2022/09/26 05:51:17;;;;;;;9.52;7.22;;;11.30;99.90;;;;;;5156494;27;20031;-67
2022/09/26 05:53:44;;;;;;;13.15;7.22;;;11.40;99.90;;;;;;5156106;27;20090;-67
2022/09/26 05:56:11;;;;;;;10.90;7.18;;;11.40;99.90;;;;;;5156369;27;20030;-67
2022/09/26 05:58:38;;;;;;;10.65;7.57;;;11.40;99.90;;;;;;5156290;27;20035;-67
2022/09/26 06:01:14;;;;;;;12.18;7.28;;;11.40;99.90;;;;;;5156217;27;20091;-67
2022/09/26 06:03:44;;;;;;;11.30;7.35;;;11.50;99.90;;;;;;5156108;27;20427;-67
2022/09/26 06:06:12;;;;;;;10.18;6.55;;;11.50;99.90;;;;;;5156005;27;20034;-67
2022/09/26 06:08:38;;;;;;;9.35;6.78;;;11.40;99.90;;;;;;5155912;27;20074;-67
2022/09/26 06:11:11;;;;;;;8.55;6.18;;;11.40;99.90;;;;;;5154965;27;20118;-67
2022/09/26 06:13:37;;;;;;;9.40;6.68;;;11.40;99.90;;;;;;5156032;27;20042;-67
2022/09/26 06:16:09;;;;;;;9.38;6.13;;;11.40;99.90;;;;;;5155440;27;20038;-67
2022/09/26 06:18:36;;;;;;;9.80;6.50;;;11.40;99.90;;;;;;5155876;27;20039;-67
2022/09/26 06:21:06;;;;;;;12.45;5.90;;;11.40;99.90;;;;;;5155722;27;20049;-67
2022/09/26 06:23:33;;;;;;;10.93;5.82;;;11.40;99.90;;;;;;5153651;27;20084;-67
2022/09/26 06:25:59;;;;;;;9.30;5.85;;;11.40;99.90;;;;;;5155584;27;20125;-67
2022/09/26 06:28:26;;;;;;;8.60;5.95;;;11.40;99.90;;;;;;5155644;27;20509;-67
2022/09/26 06:30:53;;;;;;;8.35;5.53;;;11.40;99.90;;;;;;5155597;27;20034;-67
2022/09/26 06:33:18;;;;;;;8.48;5.80;;;11.40;99.90;;;;;;5150465;27;20192;-67
2022/09/26 06:35:44;;;;;;;8.07;5.20;;;11.30;99.90;;;;;;5145392;27;20554;-67
2022/09/26 06:38:10;;;;;;;8.35;5.20;;;11.40;99.90;;;;;;5142311;27;20035;-67
2022/09/26 06:40:35;;;;;;;11.05;5.50;;;11.40;99.90;;;;;;5142824;27;20047;-67
2022/09/26 06:43:01;;;;;;;9.57;5.15;;;11.40;99.90;;;;;;5143677;27;20121;-67
2022/09/26 06:45:26;;;;;;;10.65;5.53;;;11.40;99.90;;;;;;5153669;27;20035;-67
2022/09/26 06:47:53;;;;;;;9.70;5.50;;;11.40;99.90;;;;;;5155184;27;20039;-67
2022/09/26 06:50:20;;;;;;;9.23;5.57;;;11.40;99.90;;;;;;5153920;27;20042;-67
2022/09/26 06:52:46;;;;;;;7.95;4.55;;;11.40;99.90;;;;;;5155380;27;20042;-67
2022/09/26 06:55:12;;;;;;;11.32;5.40;;;11.40;99.90;;;;;;5153697;27;20463;-67
2022/09/26 06:57:40;;;;;;;12.25;5.30;;;11.40;99.90;;;;;;5155163;27;20038;-67
2022/09/26 07:00:14;;;;;;;7.93;5.30;;;11.40;99.90;;;;;;5154958;27;20077;-67
2022/09/26 07:02:54;;;;;;;6.45;4.40;;;11.40;99.90;;;;;;5154778;27;20038;-67
2022/09/26 07:05:21;;;;;;;7.40;4.93;;;11.40;99.90;;;;;;5153340;27;20077;-67
2022/09/26 07:07:47;;;;;;;7.43;4.55;;;11.40;99.90;;;;;;5153826;27;20039;-67
2022/09/26 07:10:15;;;;;;;8.43;4.65;;;11.40;99.90;;;;;;5154856;27;20114;-66
2022/09/26 07:12:43;;;;;;;6.38;4.47;;;11.40;99.90;;;;;;5154804;27;20039;-67
2022/09/26 07:15:12;;;;;;;5.45;4.20;;;11.40;99.90;;;;;;5152240;27;20046;-67
2022/09/26 07:17:39;;;;;;;5.68;4.50;;;11.40;99.90;;;;;;5154124;27;20055;-67
2022/09/26 07:20:06;;;;;;;6.47;4.65;;;11.40;99.90;;;;;;5153320;27;20088;-67
2022/09/26 07:22:32;;;;;;;6.47;4.32;;;11.30;99.90;;;;;;5154389;27;20035;-67
2022/09/26 07:24:58;;;;;;;7.18;3.70;;;11.40;99.90;;;;;;5153780;27;20696;-67
2022/09/26 07:27:23;;;;;;;6.90;4.15;;;11.40;99.90;;;;;;5153736;27;20122;-67
2022/09/26 07:29:49;;;;;;;8.82;4.25;;;11.40;99.90;;;;;;5154056;27;20038;-67
2022/09/26 07:32:14;;;;;;;6.20;3.90;;;11.50;99.90;;;;;;5154076;27;20111;-67
2022/09/26 07:34:41;;;;;;;5.72;4.22;;;11.40;99.90;;;;;;5153686;27;20046;-67
2022/09/26 07:37:07;;;;;;;6.72;3.95;;;11.40;99.90;;;;;;5152388;27;20117;-67
2022/09/26 07:39:32;;;;;;;7.35;4.82;;;11.50;99.90;;;;;;5153944;27;20542;-67
2022/09/26 07:42:00;;;;;;;4.57;4.00;;;11.50;99.90;;;;;;5152105;27;20043;-67
2022/09/26 07:44:26;;;;;;;7.65;4.30;;;11.50;99.90;;;;;;5151685;27;20049;-67
2022/09/26 07:52:21;;;;;;;8.30;4.80;;;11.50;99.90;;;;;;5153952;27;20043;-67
2022/09/26 07:54:47;;;;;;;10.57;5.07;;;11.40;99.90;;;;;;5152258;27;20034;-68
2022/09/26 07:57:13;;;;;;;6.70;4.78;;;11.50;99.90;;;;;;5154043;27;20039;-68
2022/09/26 07:59:39;;;;;;;5.18;4.50;;;11.40;99.90;;;;;;5152522;27;20053;-68
2022/09/26 08:02:05;;;;;;;12.15;5.10;;;11.40;99.90;;;;;;5153726;27;20126;-68
2022/09/26 08:04:31;;;;;;;6.35;4.63;;;11.40;99.90;;;;;;5152232;27;20043;-67
2022/09/26 08:06:58;;;;;;;6.82;4.65;;;11.40;99.90;;;;;;5153721;27;20043;-68
2022/09/26 08:09:23;;;;;;;7.30;4.57;;;11.40;99.90;;;;;;5153846;27;20107;-68
2022/09/26 08:11:49;;;;;;;8.25;5.10;;;11.50;99.90;;;;;;5153736;27;20046;-68
2022/09/26 08:14:15;;;;;;;10.90;5.03;;;11.50;99.90;;;;;;5153360;27;20491;-68
2022/09/26 08:16:40;;;;;;;7.25;4.88;;;11.40;99.90;;;;;;5153543;27;20087;-68
2022/09/26 08:19:08;;;;;;;11.30;5.00;;;11.50;99.90;;;;;;5153792;27;20087;-68
2022/09/26 08:21:34;;;;;;;6.75;4.40;;;11.50;99.90;;;;;;5152303;27;20042;-69
2022/09/26 08:24:01;;;;;;;7.47;4.40;;;11.50;99.90;;;;;;5152106;27;20049;-69
2022/09/26 08:26:27;;;;;;;10.32;4.90;;;11.60;99.90;;;;;;5153628;27;20486;-68
2022/09/26 08:28:53;;;;;;;8.18;4.55;;;11.60;99.90;;;;;;5153575;27;20118;-68
2022/09/26 08:31:19;;;;;;;10.70;4.38;;;11.60;99.90;;;;;;5153475;27;20042;-68
2022/09/26 08:33:46;;;;;;;9.18;4.43;;;11.60;99.90;;;;;;5147045;27;20031;-68
2022/09/26 08:36:16;;;;;;;10.07;5.10;;;11.70;99.90;;;;;;5153588;27;20063;-69
2022/09/26 08:38:42;;;;;;;9.25;4.28;;;11.70;99.90;;;;;;5153756;27;20038;-68
2022/09/26 08:41:10;;;;;;;12.20;4.45;;;11.80;99.90;;;;;;5152050;27;20039;-68
2022/09/26 08:43:50;;;;;;;8.75;4.30;;;11.80;99.90;;;;;;5151178;27;20119;-68
2022/09/26 08:46:48;;;;;;;8.05;4.35;;;11.70;99.90;;;;;;5155573;27;20030;-68
2022/09/26 08:49:34;;;;;;;8.93;4.15;;;11.80;99.90;;;;;;5157657;27;20448;-68
2022/09/26 08:52:04;;;;;;;6.90;3.90;;;11.80;99.90;;;;;;5157221;27;20046;-69
2022/09/26 08:54:36;;;;;;;9.77;3.90;;;11.80;99.90;;;;;;5157267;27;20159;-68
2022/09/26 08:57:14;;;;;;;9.13;4.40;;;11.80;99.90;;;;;;5157620;27;20035;-68
2022/09/26 08:59:42;;;;;;;5.72;4.40;;;11.80;99.90;;;;;;5157364;27;20034;-68
2022/09/26 09:02:36;;;;;;;8.18;5.07;;;11.90;99.90;;;;;;5155583;27;20489;-68
2022/09/26 09:05:19;;;;;;;9.68;5.63;;;11.90;99.90;;;;;;5155648;27;20046;-68
2022/09/26 09:07:52;;;;;;;8.35;4.53;;;11.90;99.90;;;;;;5157334;27;20030;-68
2022/09/26 09:10:28;;;;;;;7.93;4.05;;;11.90;99.90;;;;;;5157112;27;20109;-68
2022/09/26 09:13:16;;;;;;;10.10;4.30;;;11.90;99.90;;;;;;5157307;27;20126;-68
2022/09/26 09:16:06;;;;;;;8.68;3.78;;;11.90;99.90;;;;;;5156817;27;20034;-68
2022/09/26 09:18:52;;;;;;;9.73;4.32;;;11.90;99.90;;;;;;5156993;27;20495;-68
2022/09/26 09:21:38;;;;;;;6.90;4.22;;;12.00;99.90;;;;;;5155929;27;20435;-68
2022/09/26 09:24:43;;;;;;;9.18;4.47;;;12.10;99.90;;;;;;5156202;27;20031;-68
2022/09/26 09:27:26;;;;;;;13.57;4.57;;;12.20;99.90;;;;;;5151006;27;20039;-68
2022/09/26 09:30:09;;;;;;;10.38;4.22;;;12.20;99.90;;;;;;5146027;27;20088;-68
2022/09/26 09:33:01;;;;;;;;;;;12.20;99.90;;;;;;5146730;27;20045;-67
2022/09/26 09:35:37;;;;;;;6.65;3.92;;;12.20;99.90;;;;;;5071664;28;19927;-68
2022/09/26 09:38:08;;;;;;;6.25;4.07;;;12.20;99.90;;;;;;5065785;28;20054;-68
2022/09/26 09:40:40;;;;;;;11.00;4.80;;;12.30;99.90;;;;;;5055599;28;20183;-68
2022/09/26 09:43:15;;;;;;;9.05;4.57;;;12.30;99.90;;;;;;5060546;28;20037;-68
2022/09/26 09:45:49;;;;;;;8.85;4.30;;;12.40;99.90;;;;;;5062049;28;20040;-68
2022/09/26 09:48:15;;;;;;;11.50;4.55;;;12.30;99.90;;;;;;5062496;28;20033;-69
2022/09/26 09:51:09;;;;;;;6.25;3.97;;;12.30;99.90;;;;;;5061727;28;20036;-69
2022/09/26 09:53:56;;;;;;;8.35;4.30;;;12.40;99.90;;;;;;5060843;28;20045;-68
2022/09/26 09:56:40;;;;;;;8.02;4.43;;;12.40;99.90;;;;;;5062275;28;20044;-68
2022/09/26 09:59:06;;;;;;;10.35;4.35;;;12.40;99.90;;;;;;5061407;28;20556;-68
2022/09/26 10:01:38;;;;;;;11.00;4.57;;;12.40;99.90;;;;;;5060200;28;20120;-68
2022/09/26 10:04:33;;;;;;;6.25;3.95;;;12.40;99.90;;;;;;5060771;28;20045;-68
2022/09/26 10:07:00;;;;;;;10.57;4.32;;;12.40;99.90;;;;;;5050170;28;20094;-68
2022/09/26 10:09:30;;;;;;;9.95;4.57;;;12.30;99.90;;;;;;5050282;28;20051;-69
2022/09/26 10:11:57;;;;;;;5.70;3.58;;;12.40;99.90;;;;;;5081640;27;20145;-68
2022/09/26 10:14:41;;;;;;;8.75;4.50;;;12.40;99.90;;;;;;5134566;27;20039;-68
2022/09/26 10:17:10;;;;;;;6.68;4.43;;;12.40;99.90;;;;;;5134635;27;20036;-68
2022/09/26 10:19:38;;;;;;;8.57;4.85;;;12.40;99.90;;;;;;5134689;27;20039;-68
2022/09/26 10:22:08;;;;;;;8.35;5.03;;;12.40;99.90;;;;;;5134399;27;20079;-69
2022/09/26 10:24:39;;;;;;;10.38;5.03;;;12.30;99.90;;;;;;5134671;27;20085;-68
2022/09/26 10:27:35;;;;;;;7.13;4.40;;;12.30;99.90;;;;;;5134736;27;20111;-69
2022/09/26 10:30:20;;;;;;;10.52;4.18;;;12.40;99.90;;;;;;5134775;27;20445;-68
2022/09/26 10:32:57;;;;;;;10.63;5.53;;;12.30;99.90;;;;;;5134921;27;20091;-68
2022/09/26 10:35:28;;;;;;;11.82;4.63;;;12.30;99.90;;;;;;5134108;27;20567;-68
2022/09/26 10:38:00;;;;;;;11.48;4.68;;;12.40;99.90;;;;;;5134711;27;20035;-68
2022/09/26 10:40:47;;;;;;;12.52;5.05;;;12.40;99.90;;;;;;5134559;27;20046;-68
2022/09/26 10:43:29;;;;;;;9.00;4.55;;;12.40;99.90;;;;;;5134390;27;20538;-68
2022/09/26 10:46:12;;;;;;;8.38;4.82;;;12.40;99.90;;;;;;5134101;27;20035;-68
2022/09/26 10:48:54;;;;;;;9.50;4.90;;;12.40;99.90;;;;;;5134285;27;20042;-68
2022/09/26 10:51:41;;;;;;;6.20;4.50;;;12.40;99.90;;;;;;5132982;27;20506;-68
2022/09/26 10:54:21;;;;;;;9.20;4.88;;;12.40;99.90;;;;;;5134037;27;20043;-68
2022/09/26 10:56:53;;;;;;;7.10;4.03;;;12.50;99.90;;;;;;5136657;27;20081;-68
2022/09/26 10:59:25;;;;;;;11.38;4.97;;;12.50;99.90;;;;;;5133996;27;20035;-68
2022/09/26 11:01:55;;;;;;;7.00;3.88;;;12.50;99.90;;;;;;5133946;27;20075;-68
2022/09/26 11:07:23;;;;;;;6.32;4.22;;;12.40;99.90;;;;;;5133719;27;20043;-68
2022/09/26 11:09:51;;;;;;;6.85;4.47;;;12.40;99.90;;;;;;5133532;27;20081;-68
2022/09/26 11:12:28;;;;;;;6.07;4.13;;;12.40;99.90;;;;;;5136261;27;20042;-69
2022/09/26 11:15:03;;;;;;;9.65;5.00;;;12.40;99.90;;;;;;5133581;27;20466;-69
2022/09/26 11:17:48;;;;;;;10.35;4.95;;;12.40;99.90;;;;;;5133710;27;20070;-69
2022/09/26 11:20:33;;;;;;;7.05;4.70;;;12.40;99.90;;;;;;5133775;27;20038;-69
2022/09/26 11:23:08;;;;;;;9.63;4.50;;;12.40;99.90;;;;;;5133768;27;20398;-69
2022/09/26 11:26:02;;;;;;;10.98;5.28;;;12.40;99.90;;;;;;5133089;27;20043;-68
2022/09/26 11:28:35;;;;;;;7.78;5.53;;;12.40;99.90;;;;;;5122733;27;20047;-69
2022/09/26 11:31:12;;;;;;;8.50;4.80;;;12.40;99.90;;;;;;5133316;27;20031;-68
2022/09/26 11:33:41;;;;;;;9.00;5.00;;;12.40;99.90;;;;;;5133699;27;20034;-68
2022/09/26 11:36:34;;;;;;;8.70;4.72;;;12.30;99.90;;;;;;5133081;27;20039;-68
2022/09/26 11:39:29;;;;;;;9.00;4.70;;;12.30;99.90;;;;;;5133320;27;20452;-68
2022/09/26 11:42:29;;;;;;;8.55;5.28;;;12.40;99.90;;;;;;5131951;27;20043;-69
2022/09/26 11:44:57;;;;;;;7.18;5.05;;;12.30;99.90;;;;;;5131632;27;20046;-69
2022/09/26 11:47:38;;;;;;;7.18;4.75;;;12.20;99.90;;;;;;5132678;27;20371;-69
2022/09/26 11:50:22;;;;;;;9.02;4.93;;;12.30;99.90;;;;;;5131878;27;20537;-69
2022/09/26 11:53:04;;;;;;;7.35;4.68;;;12.30;99.90;;;;;;5131825;27;20077;-69
2022/09/26 11:55:39;;;;;;;10.23;5.22;;;12.40;99.90;;;;;;5132716;27;20123;-69
2022/09/26 11:58:38;;;;;;;7.70;4.75;;;12.50;99.90;;;;;;5131666;27;20384;-69
2022/09/26 12:01:26;;;;;;;8.57;4.32;;;12.50;99.90;;;;;;5133154;27;20035;-68
2022/09/26 12:04:10;;;;;;;11.63;4.32;;;12.40;99.90;;;;;;5132708;27;20398;-69
2022/09/26 12:07:06;;;;;;;7.72;4.60;;;12.40;99.90;;;;;;5131518;27;20043;-70
2022/09/26 12:10:08;;;;;;;8.40;4.50;;;12.50;99.90;;;;;;5132917;27;20399;-70
2022/09/26 12:12:43;;;;;;;4.82;4.30;;;12.50;99.90;;;;;;5131513;27;20103;-71
2022/09/26 12:15:22;;;;;;;8.38;4.53;;;12.50;99.90;;;;;;5132282;27;20043;-71
2022/09/26 12:18:04;;;;;;;8.85;4.07;;;12.50;99.90;;;;;;5130993;27;20035;-71
2022/09/26 12:20:40;;;;;;;7.22;4.20;;;12.50;99.90;;;;;;5132057;27;20398;-72
2022/09/26 12:23:30;;;;;;;5.95;3.83;;;12.40;99.90;;;;;;5132528;27;20440;-71
2022/09/26 12:25:59;;;;;;;5.40;3.35;;;12.50;99.90;;;;;;5132330;28;20035;-71
2022/09/26 12:28:42;;;;;;;6.53;3.67;;;12.40;99.90;;;;;;5132517;27;20118;-71
2022/09/26 12:31:38;;;;;;;4.05;3.33;;;12.50;99.90;;;;;;5132544;28;20436;-71
2022/09/26 12:34:22;;;;;;;6.43;3.63;;;12.40;99.90;;;;;;5132091;28;20722;-72
2022/09/26 12:37:11;;;;;;;4.88;3.35;;;12.40;99.90;;;;;;5132186;27;20106;-71
2022/09/26 12:39:47;;;;;;;6.35;3.33;;;12.40;99.90;;;;;;5132449;27;20077;-72
2022/09/26 12:42:36;;;;;;;4.78;3.10;;;12.40;99.90;;;;;;5131369;27;20051;-71
2022/09/26 12:45:16;;;;;;;5.80;3.53;;;12.40;99.90;;;;;;5132274;27;20432;-71
2022/09/26 12:47:57;;;;;;;3.85;2.53;;;12.40;99.90;;;;;;5132093;27;20039;-71
2022/09/26 12:50:45;;;;;;;4.60;2.80;;;12.40;99.90;;;;;;5132641;27;20043;-71
2022/09/26 12:53:36;;;;;;;6.68;3.15;;;12.50;99.90;;;;;;5132419;27;20039;-71
2022/09/26 12:56:17;;;;;;;4.93;3.13;;;12.40;99.90;;;;;;5131973;27;20042;-72
2022/09/26 12:59:07;;;;;;;3.42;3.13;;;12.40;99.90;;;;;;5132372;27;20130;-72
2022/09/26 13:01:47;;;;;;;4.00;2.88;;;12.50;99.90;;;;;;5130986;28;20054;-72
2022/09/26 13:04:34;;;;;;;3.00;2.78;;;12.40;99.90;;;;;;5113641;28;20051;-71
2022/09/26 13:07:33;;;;;;;4.72;2.92;;;12.50;99.90;;;;;;5130996;28;20399;-72
2022/09/26 13:10:25;;;;;;;3.38;3.08;;;12.40;99.90;;;;;;5132356;28;20391;-71
2022/09/26 13:13:16;;;;;;;3.55;3.00;;;12.40;99.90;;;;;;5130922;27;20499;-72
2022/09/26 13:15:53;;;;;;;4.00;2.80;;;12.40;99.90;;;;;;5130531;27;20053;-71
2022/09/26 13:18:38;;;;;;;3.20;2.75;;;12.40;99.90;;;;;;5130749;27;20058;-72
2022/09/26 13:21:12;;;;;;;4.00;2.45;;;12.40;99.90;;;;;;5132135;27;20062;-72
2022/09/26 13:23:39;;;;;;;4.38;2.85;;;12.40;99.90;;;;;;5132147;27;20082;-72
2022/09/26 13:26:35;;;;;;;5.18;2.63;;;12.40;99.90;;;;;;5130884;28;20072;-72
2022/09/26 13:29:14;;;;;;;3.75;2.72;;;12.40;99.90;;;;;;5130523;27;20412;-72